createdAt,value
2023-01-22T00:00:30.097Z,6.83
2023-01-22T00:02:56.486Z,6.38
2023-01-22T00:05:22.865Z,6.88
2023-01-22T00:07:49.255Z,6.85
2023-01-22T00:10:47.708Z,7.07
2023-01-22T00:13:22.661Z,6.80
2023-01-22T00:15:49.120Z,6.28
2023-01-22T00:18:16.849Z,7.70
2023-01-22T00:20:50.898Z,7.20
2023-01-22T00:23:19.274Z,6.88
2023-01-22T00:25:46.080Z,6.03
2023-01-22T00:28:15.025Z,7.35
2023-01-22T00:30:41.385Z,6.72
2023-01-22T00:33:22.128Z,6.20
2023-01-22T00:35:53.688Z,6.47
2023-01-22T00:38:20.056Z,7.07
2023-01-22T00:40:46.441Z,6.68
2023-01-22T00:43:12.869Z,6.70
2023-01-22T00:45:50.442Z,6.72
2023-01-22T00:48:27.429Z,6.90
2023-01-22T00:51:08.644Z,7.30
2023-01-22T00:53:37.075Z,6.90
2023-01-22T00:56:03.695Z,6.45
2023-01-22T00:58:30.392Z,6.40
2023-01-22T01:01:02.186Z,6.65
2023-01-22T01:03:31.282Z,7.07
2023-01-22T01:06:21.517Z,5.70
2023-01-22T01:09:23.092Z,5.90
2023-01-22T01:11:49.470Z,6.47
2023-01-22T01:14:18.974Z,6.35
2023-01-22T01:16:50.636Z,6.47
2023-01-22T01:19:20.406Z,6.78
2023-01-22T01:21:47.312Z,6.82
2023-01-22T01:24:15.776Z,7.18
2023-01-22T01:26:54.112Z,6.60
2023-01-22T01:29:20.639Z,6.90
2023-01-22T01:31:54.718Z,6.60
2023-01-22T01:34:27.215Z,6.05
2023-01-22T01:37:05.799Z,5.63
2023-01-22T01:39:34.183Z,6.13
2023-01-22T01:42:00.518Z,7.03
2023-01-22T01:44:53.636Z,5.45
2023-01-22T01:47:57.459Z,5.55
2023-01-22T01:50:27.624Z,6.85
2023-01-22T01:52:54.596Z,5.53
2023-01-22T01:55:35.357Z,6.20
2023-01-22T01:58:22.441Z,5.60
2023-01-22T02:01:13.753Z,5.78
2023-01-22T02:03:47.612Z,5.85
2023-01-22T02:06:17.028Z,5.50
2023-01-22T02:08:50.268Z,5.17
2023-01-22T02:11:30.040Z,6.20
2023-01-22T02:14:01.298Z,5.93
2023-01-22T02:17:11.878Z,5.07
2023-01-22T02:19:42.184Z,5.22
2023-01-22T02:22:14.594Z,5.13
2023-01-22T02:24:41.080Z,4.70
2023-01-22T02:27:11.924Z,4.88
2023-01-22T02:29:38.702Z,5.32
2023-01-22T02:32:05.116Z,5.10
2023-01-22T02:34:50.051Z,4.80
2023-01-22T02:37:16.935Z,4.88
2023-01-22T02:39:49.408Z,5.15
2023-01-22T02:42:48.468Z,5.45
2023-01-22T02:45:23.964Z,4.72
2023-01-22T02:47:50.487Z,4.43
2023-01-22T02:50:17.750Z,4.95
2023-01-22T02:52:44.323Z,4.95
2023-01-22T02:55:10.771Z,5.22
2023-01-22T02:58:02.904Z,4.72
2023-01-22T03:00:37.461Z,4.63
2023-01-22T03:03:07.810Z,4.57
2023-01-22T03:05:36.500Z,5.03
2023-01-22T03:08:04.068Z,4.82
2023-01-22T03:10:39.801Z,4.40
2023-01-22T03:13:25.803Z,5.03
2023-01-22T03:16:27.932Z,4.88
2023-01-22T03:19:22.453Z,5.00
2023-01-22T03:21:48.923Z,4.85
2023-01-22T03:24:15.382Z,4.78
2023-01-22T03:26:41.758Z,5.07
2023-01-22T03:29:08.135Z,4.88
2023-01-22T03:31:34.772Z,4.22
2023-01-22T03:34:01.251Z,5.03
2023-01-22T03:36:59.665Z,4.97
2023-01-22T03:39:38.688Z,5.07
2023-01-22T03:42:14.249Z,4.45
2023-01-22T03:44:40.653Z,4.90
2023-01-22T03:47:15.097Z,4.13
2023-01-22T03:50:00.858Z,4.18
2023-01-22T03:52:31.655Z,4.60
2023-01-22T03:54:59.009Z,4.93
2023-01-22T03:57:26.392Z,3.78
2023-01-22T03:59:52.770Z,4.03
2023-01-22T04:02:19.198Z,4.25
2023-01-22T04:04:51.743Z,5.10
2023-01-22T04:07:18.136Z,4.88
2023-01-22T04:10:41.471Z,4.65
2023-01-22T04:13:07.845Z,4.03
2023-01-22T04:15:34.289Z,4.82
2023-01-22T04:18:12.500Z,5.10
2023-01-22T04:20:39.915Z,4.30
2023-01-22T04:23:22.180Z,3.95
2023-01-22T04:25:51.301Z,5.28
2023-01-22T04:28:18.665Z,4.80
2023-01-22T04:30:48.046Z,5.13
2023-01-22T04:33:18.528Z,5.15
2023-01-22T04:35:50.195Z,4.85
2023-01-22T04:38:16.531Z,5.18
2023-01-22T04:40:46.416Z,5.18
2023-01-22T04:43:13.458Z,4.90
2023-01-22T04:45:46.738Z,5.28
2023-01-22T04:48:14.020Z,5.20
2023-01-22T04:50:46.659Z,4.90
2023-01-22T04:53:17.308Z,5.57
2023-01-22T04:55:43.665Z,5.33
2023-01-22T04:58:10.111Z,5.68
2023-01-22T05:00:38.587Z,5.43
2023-01-22T05:03:05.033Z,4.90
2023-01-22T05:05:33.792Z,4.95
2023-01-22T05:08:07.556Z,5.27
2023-01-22T05:10:34.012Z,5.00
2023-01-22T05:13:10.560Z,4.70
2023-01-22T05:15:38.973Z,5.47
2023-01-22T05:18:05.449Z,4.47
2023-01-22T05:20:33.876Z,5.00
2023-01-22T05:23:00.260Z,4.70
2023-01-22T05:25:26.626Z,5.25
2023-01-22T05:27:53.014Z,4.55
2023-01-22T05:30:20.751Z,5.32
2023-01-22T05:32:47.488Z,4.70
2023-01-22T05:35:22.523Z,4.90
2023-01-22T05:37:48.966Z,4.65
2023-01-22T05:40:15.692Z,4.30
2023-01-22T05:42:42.223Z,4.72
2023-01-22T05:45:10.126Z,5.60
2023-01-22T05:47:36.480Z,4.53
2023-01-22T05:50:02.970Z,4.72
2023-01-22T05:52:29.336Z,5.43
2023-01-22T05:54:55.773Z,5.72
2023-01-22T05:57:22.130Z,5.77
2023-01-22T05:59:49.604Z,5.38
2023-01-22T06:02:16.038Z,5.10
2023-01-22T06:04:42.435Z,4.75
2023-01-22T06:07:08.817Z,4.55
2023-01-22T06:09:35.199Z,5.40
2023-01-22T06:12:01.568Z,5.55
2023-01-22T06:14:32.996Z,5.03
2023-01-22T06:16:59.405Z,4.82
2023-01-22T06:19:25.788Z,5.50
2023-01-22T06:21:52.137Z,4.90
2023-01-22T06:24:22.709Z,5.18
2023-01-22T06:26:49.056Z,6.32
2023-01-22T06:29:15.449Z,5.00
2023-01-22T06:31:45.132Z,4.90
2023-01-22T06:34:11.606Z,5.67
2023-01-22T06:36:42.669Z,4.97
2023-01-22T06:39:09.875Z,5.47
2023-01-22T06:41:40.466Z,4.60
2023-01-22T06:44:07.124Z,4.90
2023-01-22T06:46:39.487Z,4.80
2023-01-22T06:49:18.982Z,4.72
2023-01-22T06:51:47.479Z,4.68
2023-01-22T06:54:19.065Z,5.10
2023-01-22T06:56:45.559Z,5.20
2023-01-22T06:59:18.266Z,4.67
2023-01-22T07:01:52.289Z,4.22
2023-01-22T07:04:18.881Z,4.25
2023-01-22T07:06:46.446Z,4.35
2023-01-22T07:09:12.898Z,4.68
2023-01-22T07:11:40.016Z,5.07
2023-01-22T07:14:11.679Z,5.07
2023-01-22T07:16:38.151Z,4.72
2023-01-22T07:19:04.678Z,4.38
2023-01-22T07:21:53.045Z,3.72
2023-01-22T07:24:19.508Z,4.40
2023-01-22T07:26:46.316Z,5.00
2023-01-22T07:29:12.823Z,4.55
2023-01-22T07:31:39.301Z,4.25
2023-01-22T07:34:06.882Z,4.40
2023-01-22T07:36:33.295Z,3.60
2023-01-22T07:39:04.054Z,4.55
2023-01-22T07:41:30.459Z,4.10
2023-01-22T07:44:00.513Z,4.50
2023-01-22T07:46:41.192Z,4.40
2023-01-22T07:49:07.862Z,4.43
2023-01-22T07:51:34.870Z,4.60
2023-01-22T07:54:01.298Z,4.18
2023-01-22T07:56:31.928Z,4.35
2023-01-22T07:58:58.382Z,4.25
2023-01-22T08:01:25.856Z,4.07
2023-01-22T08:03:52.412Z,4.03
2023-01-22T08:06:23.039Z,4.05
2023-01-22T08:08:50.046Z,3.92
2023-01-22T08:11:16.498Z,3.75
2023-01-22T08:13:43.059Z,4.10
2023-01-22T08:16:09.625Z,4.35
2023-01-22T08:18:36.949Z,3.90
2023-01-22T08:21:03.761Z,3.60
2023-01-22T08:23:30.179Z,3.67
2023-01-22T08:26:00.900Z,4.07
2023-01-22T08:28:38.878Z,3.42
2023-01-22T08:31:07.775Z,3.70
2023-01-22T08:33:35.826Z,4.00
2023-01-22T08:36:02.212Z,3.90
2023-01-22T08:38:28.615Z,3.63
2023-01-22T08:40:56.012Z,4.13
2023-01-22T08:43:22.622Z,3.83
2023-01-22T08:45:49.787Z,4.00
2023-01-22T08:48:16.595Z,4.05
2023-01-22T08:50:43.105Z,4.63
2023-01-22T08:53:09.552Z,3.97
2023-01-22T08:55:35.967Z,4.60
2023-01-22T08:58:02.335Z,4.03
2023-01-22T09:00:29.135Z,3.83
2023-01-22T09:02:59.966Z,4.00
2023-01-22T09:05:27.541Z,3.72
2023-01-22T09:07:53.967Z,4.20
2023-01-22T09:10:21.916Z,3.60
2023-01-22T09:12:59.669Z,3.88
2023-01-22T09:15:27.656Z,4.43
2023-01-22T09:17:54.115Z,3.97
2023-01-22T09:20:21.666Z,3.08
2023-01-22T09:22:48.969Z,4.10
2023-01-22T09:25:16.376Z,4.10
2023-01-22T09:27:42.964Z,4.03
2023-01-22T09:30:10.185Z,3.92
2023-01-22T09:32:37.239Z,3.72
2023-01-22T09:35:03.744Z,4.28
2023-01-22T09:37:30.153Z,4.00
2023-01-22T09:39:56.694Z,3.63
2023-01-22T09:42:28.203Z,3.92
2023-01-22T09:45:06.608Z,3.65
2023-01-22T09:47:43.978Z,4.13
2023-01-22T09:50:30.432Z,3.70
2023-01-22T09:53:00.297Z,4.03
2023-01-22T09:55:35.614Z,4.47
2023-01-22T09:58:06.016Z,4.22
2023-01-22T10:00:47.297Z,3.63
2023-01-22T10:03:23.345Z,3.88
2023-01-22T10:05:57.868Z,3.87
2023-01-22T10:08:33.720Z,3.88
2023-01-22T10:11:02.931Z,3.63
2023-01-22T10:13:37.299Z,4.03
2023-01-22T10:16:05.522Z,4.13
2023-01-22T10:18:39.724Z,4.10
2023-01-22T10:21:15.422Z,3.80
2023-01-22T10:23:41.774Z,4.40
2023-01-22T10:26:18.011Z,3.63
2023-01-22T10:28:47.619Z,3.40
2023-01-22T10:31:23.965Z,3.80
2023-01-22T10:34:01.957Z,3.72
2023-01-22T10:36:30.028Z,3.72
2023-01-22T10:39:11.570Z,4.10
2023-01-22T10:41:37.938Z,3.13
2023-01-22T10:44:09.473Z,3.70
2023-01-22T10:46:35.845Z,3.50
2023-01-22T10:49:06.243Z,3.28
2023-01-22T10:51:38.547Z,3.70
2023-01-22T10:54:19.667Z,3.58
2023-01-22T10:56:46.200Z,3.30
2023-01-22T10:59:20.288Z,3.90
2023-01-22T11:01:48.292Z,3.30
2023-01-22T11:04:22.035Z,3.92
2023-01-22T11:06:53.073Z,3.80
2023-01-22T11:09:41.788Z,4.23
2023-01-22T11:12:15.557Z,4.07
2023-01-22T11:14:43.087Z,4.10
2023-01-22T11:17:29.090Z,4.30
2023-01-22T11:20:03.644Z,4.28
2023-01-22T11:22:40.497Z,3.50
2023-01-22T11:25:11.392Z,4.57
2023-01-22T11:28:02.176Z,4.18
2023-01-22T11:30:58.061Z,3.85
2023-01-22T11:33:55.006Z,3.95
2023-01-22T11:36:32.677Z,3.50
2023-01-22T11:39:28.547Z,4.35
2023-01-22T11:42:13.973Z,3.78
2023-01-22T11:45:03.875Z,3.75
2023-01-22T11:48:10.544Z,4.85
2023-01-22T11:50:52.286Z,4.40
2023-01-22T11:53:36.592Z,4.32
2023-01-22T11:56:16.855Z,3.65
2023-01-22T11:59:01.620Z,4.38
2023-01-22T12:01:51.505Z,4.15
2023-01-22T12:04:37.096Z,3.80
2023-01-22T12:07:23.516Z,3.92
2023-01-22T12:10:08.470Z,4.10
2023-01-22T12:12:56.672Z,4.22
2023-01-22T12:15:50.054Z,4.10
2023-01-22T12:18:54.098Z,4.00
2023-01-22T12:21:55.271Z,4.30
2023-01-22T12:24:46.479Z,4.40
2023-01-22T12:27:34.691Z,4.50
2023-01-22T12:30:14.512Z,4.03
2023-01-22T12:32:45.224Z,3.50
2023-01-22T12:35:20.669Z,4.20
2023-01-22T12:38:12.563Z,4.30
2023-01-22T12:40:54.344Z,4.05
2023-01-22T12:43:28.652Z,4.60
2023-01-22T12:46:21.618Z,5.00
2023-01-22T12:49:03.357Z,5.07
2023-01-22T12:51:37.542Z,5.65
2023-01-22T12:54:37.060Z,4.22
2023-01-22T12:57:23.293Z,5.50
2023-01-22T12:59:57.525Z,6.37
2023-01-22T13:02:36.102Z,5.10
2023-01-22T13:05:19.994Z,5.35
2023-01-22T13:07:47.272Z,4.43
2023-01-22T13:10:19.835Z,5.13
2023-01-22T13:12:51.925Z,4.97
2023-01-22T13:15:24.062Z,5.05
2023-01-22T13:18:06.421Z,4.68
2023-01-22T13:20:53.098Z,5.05
2023-01-22T13:23:21.710Z,4.97
2023-01-22T13:25:54.759Z,4.33
2023-01-22T13:28:21.604Z,4.88
2023-01-22T13:31:10.948Z,4.70
2023-01-22T13:33:37.369Z,5.07
2023-01-22T13:36:11.504Z,5.32
2023-01-22T13:38:37.982Z,5.07
2023-01-22T13:41:18.664Z,5.38
2023-01-22T13:43:47.190Z,6.43
2023-01-22T13:46:14.140Z,5.93
2023-01-22T13:48:41.555Z,5.50
2023-01-22T13:51:18.181Z,5.87
2023-01-22T13:53:50.124Z,4.63
2023-01-22T13:56:20.826Z,5.00
2023-01-22T13:58:49.277Z,5.75
2023-01-22T14:01:34.149Z,5.55
2023-01-22T14:04:06.641Z,5.03
2023-01-22T14:06:45.316Z,6.07
2023-01-22T14:09:11.694Z,5.78
2023-01-22T14:11:39.669Z,5.57
2023-01-22T14:14:19.423Z,5.70
2023-01-22T14:16:46.045Z,5.93
2023-01-22T14:19:12.968Z,6.65
2023-01-22T14:21:39.495Z,5.70
2023-01-22T14:24:06.378Z,6.05
2023-01-22T14:26:32.828Z,5.65
2023-01-22T14:28:59.251Z,6.83
2023-01-22T14:31:25.717Z,5.25
2023-01-22T14:33:52.062Z,6.10
2023-01-22T14:36:20.251Z,6.38
2023-01-22T14:38:47.927Z,5.18
2023-01-22T14:41:14.310Z,5.33
2023-01-22T14:43:46.878Z,6.03
2023-01-22T14:46:13.201Z,5.03
2023-01-22T14:48:39.665Z,6.18
2023-01-22T14:51:11.287Z,6.30
2023-01-22T14:53:38.829Z,6.10
2023-01-22T14:56:05.707Z,5.45
2023-01-22T14:58:32.062Z,6.15
2023-01-22T15:00:58.517Z,5.65
2023-01-22T15:03:24.963Z,5.22
2023-01-22T15:05:52.431Z,11.57
2023-01-22T15:08:18.853Z,7.15
2023-01-22T15:10:45.403Z,5.78
2023-01-22T15:13:11.825Z,5.80
2023-01-22T15:15:38.235Z,6.57
2023-01-22T15:18:04.623Z,6.00
2023-01-22T15:20:31.214Z,5.60
2023-01-22T15:22:57.673Z,5.90
2023-01-22T15:25:24.000Z,7.95
2023-01-22T15:27:50.337Z,6.72
2023-01-22T15:30:17.086Z,6.53
2023-01-22T15:32:43.692Z,7.78
2023-01-22T15:35:10.219Z,8.55
2023-01-22T15:37:36.873Z,6.82
2023-01-22T15:40:03.458Z,6.40
2023-01-22T15:42:29.839Z,6.57
2023-01-22T15:44:56.314Z,7.25
2023-01-22T15:47:22.804Z,6.20
2023-01-22T15:49:49.169Z,6.10
2023-01-22T15:52:15.658Z,6.43
2023-01-22T15:54:42.049Z,5.70
2023-01-22T15:57:08.485Z,6.68
2023-01-22T15:59:37.831Z,6.53
2023-01-22T16:02:04.250Z,6.47
2023-01-22T16:04:30.611Z,7.03
2023-01-22T16:06:56.956Z,6.00
2023-01-22T16:09:23.303Z,6.85
2023-01-22T16:11:50.078Z,6.60
2023-01-22T16:14:16.520Z,7.82
2023-01-22T16:16:42.976Z,6.13
2023-01-22T16:19:10.830Z,6.97
2023-01-22T16:21:37.168Z,6.43
2023-01-22T16:24:03.821Z,6.25
2023-01-22T16:26:32.896Z,9.57
2023-01-22T16:29:02.808Z,7.18
2023-01-22T16:31:32.036Z,6.60
2023-01-22T16:34:09.363Z,6.85
2023-01-22T16:36:35.870Z,8.45
2023-01-22T16:39:02.282Z,6.82
2023-01-22T16:41:36.810Z,8.13
2023-01-22T16:44:12.439Z,8.20
2023-01-22T16:46:42.120Z,7.93
2023-01-22T16:49:16.177Z,6.30
2023-01-22T16:51:46.933Z,6.63
2023-01-22T16:54:22.742Z,7.43
2023-01-22T16:56:50.142Z,6.27
2023-01-22T16:59:17.235Z,7.75
2023-01-22T17:01:44.127Z,6.40
2023-01-22T17:04:10.756Z,6.90
2023-01-22T17:06:42.433Z,6.32
2023-01-22T17:09:15.040Z,7.60
2023-01-22T17:11:43.600Z,6.82
2023-01-22T17:14:10.476Z,6.85
2023-01-22T17:16:38.068Z,6.57
2023-01-22T17:19:04.796Z,6.70
2023-01-22T17:21:31.342Z,6.07
2023-01-22T17:23:59.029Z,7.38
2023-01-22T17:26:25.643Z,7.40
2023-01-22T17:28:53.240Z,6.45
2023-01-22T17:31:24.054Z,7.28
2023-01-22T17:33:55.350Z,9.00
2023-01-22T17:36:39.496Z,7.80
2023-01-22T17:39:06.753Z,6.32
2023-01-22T17:41:34.261Z,6.28
2023-01-22T17:44:12.953Z,7.78
2023-01-22T17:46:39.892Z,7.73
2023-01-22T17:49:07.325Z,7.32
2023-01-22T17:51:34.998Z,6.55
2023-01-22T17:54:03.188Z,8.77
2023-01-22T17:56:32.361Z,8.07
2023-01-22T17:59:01.975Z,8.27
2023-01-22T18:01:30.887Z,8.07
2023-01-22T18:04:00.062Z,8.52
2023-01-22T18:06:26.474Z,7.10
2023-01-22T18:08:53.424Z,7.95
2023-01-22T18:11:23.928Z,7.83
2023-01-22T18:13:50.751Z,6.60
2023-01-22T18:16:18.402Z,6.38
2023-01-22T18:18:45.171Z,6.50
2023-01-22T18:21:14.498Z,5.80
2023-01-22T18:23:40.874Z,6.37
2023-01-22T18:26:07.764Z,6.07
2023-01-22T18:28:34.850Z,6.50
2023-01-22T18:31:10.244Z,5.93
2023-01-22T18:33:37.932Z,6.43
2023-01-22T18:36:08.195Z,6.13
2023-01-22T18:38:36.628Z,6.90
2023-01-22T18:41:13.890Z,6.22
2023-01-22T18:43:41.182Z,6.88
2023-01-22T18:46:13.093Z,7.88
2023-01-22T18:48:41.005Z,7.47
2023-01-22T18:51:13.303Z,6.50
2023-01-22T18:53:49.407Z,6.00
2023-01-22T18:56:15.887Z,6.57
2023-01-22T18:58:44.691Z,8.55
2023-01-22T19:01:31.735Z,7.07
2023-01-22T19:04:01.731Z,6.65
2023-01-22T19:06:31.603Z,6.50
2023-01-22T19:09:07.433Z,6.53
2023-01-22T19:11:37.252Z,7.43
2023-01-22T19:14:06.397Z,7.03
2023-01-22T19:16:33.245Z,6.47
2023-01-22T19:19:07.667Z,6.80
2023-01-22T19:21:35.379Z,6.20
2023-01-22T19:24:01.938Z,7.50
2023-01-22T19:26:34.274Z,6.97
2023-01-22T19:29:04.262Z,6.47
2023-01-22T19:31:33.685Z,6.07
2023-01-22T19:34:01.214Z,7.10
2023-01-22T19:36:30.358Z,6.95
2023-01-22T19:38:58.422Z,6.43
2023-01-22T19:41:26.385Z,7.60
2023-01-22T19:43:58.261Z,7.00
2023-01-22T19:46:26.054Z,6.65
2023-01-22T19:48:53.581Z,7.57
2023-01-22T19:51:21.938Z,7.63
2023-01-22T19:53:49.221Z,7.30
2023-01-22T19:56:27.953Z,7.85
2023-01-22T19:58:58.885Z,6.78
2023-01-22T20:01:25.958Z,7.05
2023-01-22T20:03:54.570Z,18.87
2023-01-22T20:06:33.944Z,20.48
2023-01-22T20:09:00.401Z,13.98
2023-01-22T20:11:26.918Z,13.65
2023-01-22T20:13:53.326Z,8.68
2023-01-22T20:16:23.220Z,6.87
2023-01-22T20:18:50.829Z,6.65
2023-01-22T20:21:18.652Z,6.95
2023-01-22T20:23:46.413Z,7.72
2023-01-22T20:26:16.783Z,7.90
2023-01-22T20:28:43.508Z,6.20
2023-01-22T20:31:17.267Z,6.45
2023-01-22T20:33:43.673Z,7.80
2023-01-22T20:36:14.940Z,7.07
2023-01-22T20:38:43.506Z,6.97
2023-01-22T20:41:09.879Z,7.90
2023-01-22T20:43:37.912Z,8.43
2023-01-22T20:46:07.528Z,6.55
2023-01-22T20:48:34.654Z,6.82
2023-01-22T20:51:01.766Z,7.93
2023-01-22T20:53:29.447Z,7.30
2023-01-22T20:56:04.874Z,7.53
2023-01-22T20:58:32.029Z,6.68
2023-01-22T21:01:10.389Z,7.55
2023-01-22T21:03:36.826Z,7.10
2023-01-22T21:06:05.714Z,7.10
2023-01-22T21:08:38.402Z,7.30
2023-01-22T21:11:14.226Z,7.07
2023-01-22T21:13:47.028Z,6.60
2023-01-22T21:16:16.870Z,7.65
2023-01-22T21:18:45.577Z,7.07
2023-01-22T21:21:14.741Z,7.80
2023-01-22T21:23:59.880Z,7.30
2023-01-22T21:26:33.509Z,6.13
2023-01-22T21:29:16.892Z,6.68
2023-01-22T21:31:48.816Z,6.43
2023-01-22T21:34:18.732Z,6.65
2023-01-22T21:36:48.821Z,6.72
2023-01-22T21:39:18.394Z,5.30
2023-01-22T21:41:45.543Z,6.18
2023-01-22T21:44:33.736Z,6.17
2023-01-22T21:47:00.527Z,6.40
2023-01-22T21:49:27.290Z,6.55
2023-01-22T21:51:58.130Z,5.72
2023-01-22T21:54:32.938Z,6.30
2023-01-22T21:56:59.340Z,6.90
2023-01-22T21:59:25.917Z,6.20
2023-01-22T22:01:55.266Z,6.38
2023-01-22T22:04:23.926Z,6.35
2023-01-22T22:06:50.377Z,5.88
2023-01-22T22:09:19.179Z,6.30
2023-01-22T22:11:45.876Z,5.68
2023-01-22T22:14:13.508Z,6.45
2023-01-22T22:16:39.918Z,6.43
2023-01-22T22:19:07.513Z,6.68
2023-01-22T22:21:34.135Z,5.30
2023-01-22T22:24:00.606Z,6.05
2023-01-22T22:26:27.269Z,6.60
2023-01-22T22:28:54.057Z,6.25
2023-01-22T22:31:20.849Z,6.70
2023-01-22T22:33:49.887Z,6.47
2023-01-22T22:36:19.479Z,5.85
2023-01-22T22:38:46.176Z,5.30
2023-01-22T22:41:16.152Z,5.85
2023-01-22T22:43:45.874Z,5.78
2023-01-22T22:46:17.095Z,6.20
2023-01-22T22:48:45.199Z,5.45
2023-01-22T22:51:14.554Z,5.63
2023-01-22T22:53:41.660Z,6.05
2023-01-22T22:56:09.901Z,5.38
2023-01-22T22:58:36.811Z,6.10
2023-01-22T23:01:11.378Z,6.25
2023-01-22T23:03:38.491Z,5.80
2023-01-22T23:06:17.853Z,6.18
2023-01-22T23:08:48.297Z,5.75
2023-01-22T23:11:15.806Z,5.50
2023-01-22T23:13:48.080Z,6.03
2023-01-22T23:16:18.183Z,6.32
2023-01-22T23:18:46.034Z,6.47
2023-01-22T23:21:15.028Z,6.43
2023-01-22T23:23:41.432Z,6.03
2023-01-22T23:26:14.010Z,6.32
2023-01-22T23:28:40.712Z,6.63
2023-01-22T23:31:10.088Z,6.43
2023-01-22T23:33:37.259Z,5.57
2023-01-22T23:36:06.584Z,5.83
2023-01-22T23:38:32.977Z,6.32
2023-01-22T23:41:04.093Z,5.55
2023-01-22T23:43:30.690Z,6.03
2023-01-22T23:45:57.132Z,5.80
2023-01-22T23:48:23.887Z,5.40
2023-01-22T23:50:53.439Z,6.70
2023-01-22T23:53:20.817Z,5.60
2023-01-22T23:55:47.353Z,6.13
2023-01-22T23:58:14.141Z,6.07
